createdAt,value
2023-07-19T00:01:21.456Z,38.70
2023-07-19T00:03:53.966Z,39.20
2023-07-19T00:06:26.384Z,40.10
2023-07-19T00:08:58.557Z,40.30
2023-07-19T00:11:32.340Z,40.70
2023-07-19T00:14:08.398Z,41.50
2023-07-19T00:16:40.348Z,42.00
2023-07-19T00:19:20.772Z,42.30
2023-07-19T00:21:54.854Z,42.50
2023-07-19T00:24:26.952Z,42.30
2023-07-19T00:27:01.181Z,42.70
2023-07-19T00:29:35.149Z,42.10
2023-07-19T00:32:09.210Z,41.30
2023-07-19T00:34:41.487Z,40.40
2023-07-19T00:37:15.759Z,40.70
2023-07-19T00:39:48.864Z,41.10
2023-07-19T00:42:23.236Z,41.60
2023-07-19T00:44:55.328Z,42.10
2023-07-19T00:47:28.380Z,42.90
2023-07-19T00:50:00.649Z,43.60
2023-07-19T00:52:32.617Z,44.10
2023-07-19T00:55:05.044Z,44.40
2023-07-19T00:57:39.530Z,45.00
2023-07-19T01:00:13.006Z,44.70
2023-07-19T01:02:45.652Z,44.20
2023-07-19T01:05:18.182Z,44.90
2023-07-19T01:07:51.337Z,45.70
2023-07-19T01:10:23.629Z,44.30
2023-07-19T01:13:09.689Z,44.40
2023-07-19T01:15:43.845Z,44.30
2023-07-19T01:18:15.701Z,44.30
2023-07-19T01:20:47.960Z,43.80
2023-07-19T01:23:21.826Z,44.10
2023-07-19T01:25:53.856Z,43.60
2023-07-19T01:28:25.625Z,43.20
2023-07-19T01:30:57.530Z,42.60
2023-07-19T01:33:34.073Z,42.10
2023-07-19T01:36:06.698Z,40.20
2023-07-19T01:38:41.021Z,40.60
2023-07-19T01:41:13.531Z,40.70
2023-07-19T01:43:48.143Z,41.20
2023-07-19T01:46:22.696Z,40.70
2023-07-19T01:48:54.780Z,41.50
2023-07-19T01:51:27.311Z,41.70
2023-07-19T01:54:02.760Z,42.50
2023-07-19T01:56:35.946Z,42.10
2023-07-19T01:59:08.308Z,41.90
2023-07-19T02:01:42.701Z,41.40
2023-07-19T02:04:14.659Z,40.60
2023-07-19T02:06:46.749Z,40.30
2023-07-19T02:09:22.461Z,39.90
2023-07-19T02:11:54.752Z,39.80
2023-07-19T02:14:26.702Z,40.00
2023-07-19T02:16:58.495Z,40.00
2023-07-19T02:19:31.071Z,39.80
2023-07-19T02:22:03.328Z,39.20
2023-07-19T02:24:37.024Z,38.90
2023-07-19T02:27:09.725Z,37.90
2023-07-19T02:29:43.204Z,38.20
2023-07-19T02:32:16.512Z,38.00
2023-07-19T02:34:48.913Z,37.20
2023-07-19T02:37:21.270Z,37.40
2023-07-19T02:39:56.120Z,37.40
2023-07-19T02:42:30.504Z,37.20
2023-07-19T02:45:03.462Z,37.30
2023-07-19T02:47:36.691Z,37.10
2023-07-19T02:50:09.423Z,36.90
2023-07-19T02:52:41.593Z,36.90
2023-07-19T02:55:17.158Z,37.10
2023-07-19T02:57:50.119Z,36.70
2023-07-19T03:00:22.642Z,37.40
2023-07-19T03:02:56.167Z,37.80
2023-07-19T03:05:28.422Z,38.10
2023-07-19T03:08:00.584Z,38.10
2023-07-19T03:10:34.326Z,37.30
2023-07-19T03:13:08.298Z,37.20
2023-07-19T03:15:41.824Z,37.40
2023-07-19T03:18:15.074Z,37.60
2023-07-19T03:20:50.033Z,38.30
2023-07-19T03:23:22.207Z,38.60
2023-07-19T03:25:59.526Z,38.80
2023-07-19T03:28:32.522Z,38.90
2023-07-19T03:31:05.143Z,39.00
2023-07-19T03:33:37.078Z,38.70
2023-07-19T03:36:09.615Z,38.60
2023-07-19T03:38:45.879Z,38.40
2023-07-19T03:41:19.983Z,38.50
2023-07-19T03:43:52.615Z,38.50
2023-07-19T03:46:24.659Z,38.50
2023-07-19T03:48:56.615Z,38.40
2023-07-19T03:51:28.726Z,37.80
2023-07-19T03:54:01.922Z,38.20
2023-07-19T03:56:36.055Z,38.60
2023-07-19T03:59:08.661Z,38.70
2023-07-19T04:01:41.921Z,38.50
2023-07-19T04:04:16.088Z,38.50
2023-07-19T04:06:48.704Z,38.50
2023-07-19T04:09:21.273Z,38.50
2023-07-19T04:11:56.179Z,38.20
2023-07-19T04:14:28.487Z,38.10
2023-07-19T04:17:00.651Z,38.20
2023-07-19T04:19:34.997Z,37.90
2023-07-19T04:22:07.670Z,38.10
2023-07-19T04:24:40.207Z,37.90
2023-07-19T04:27:14.851Z,37.70
2023-07-19T04:29:48.521Z,37.70
2023-07-19T04:32:21.024Z,37.80
2023-07-19T04:34:54.398Z,37.70
2023-07-19T04:37:27.630Z,37.60
2023-07-19T04:39:59.647Z,37.70
2023-07-19T04:42:34.097Z,37.20
2023-07-19T04:45:06.400Z,37.00
2023-07-19T04:47:39.945Z,36.80
2023-07-19T04:50:12.607Z,36.60
2023-07-19T04:52:47.726Z,36.40
2023-07-19T04:55:20.623Z,36.50
2023-07-19T04:57:55.350Z,36.50
2023-07-19T05:00:30.136Z,36.60
2023-07-19T05:03:02.349Z,36.30
2023-07-19T05:05:36.170Z,36.40
2023-07-19T05:08:08.840Z,36.40
2023-07-19T05:10:41.911Z,36.60
2023-07-19T05:13:16.240Z,36.50
2023-07-19T05:15:48.995Z,36.50
2023-07-19T05:18:23.512Z,36.30
2023-07-19T05:20:57.901Z,36.10
2023-07-19T05:23:32.295Z,36.20
2023-07-19T05:26:05.785Z,36.30
2023-07-19T05:28:41.187Z,36.60
2023-07-19T05:31:14.604Z,36.70
2023-07-19T05:33:47.923Z,36.70
2023-07-19T05:36:21.391Z,36.90
2023-07-19T05:38:54.835Z,37.00
2023-07-19T05:41:30.585Z,36.90
2023-07-19T05:44:12.791Z,36.60
2023-07-19T05:46:47.040Z,36.50
2023-07-19T05:49:20.687Z,36.20
2023-07-19T05:51:54.992Z,36.20
2023-07-19T05:54:28.585Z,36.40
2023-07-19T05:57:03.737Z,36.40
2023-07-19T05:59:37.973Z,36.60
2023-07-19T06:02:11.661Z,36.40
2023-07-19T06:04:44.393Z,36.50
2023-07-19T06:07:18.146Z,36.40
2023-07-19T06:09:52.603Z,36.50
2023-07-19T06:12:31.744Z,36.60
2023-07-19T06:15:06.436Z,36.70
2023-07-19T06:17:39.454Z,36.60
2023-07-19T06:20:13.148Z,36.20
2023-07-19T06:22:49.356Z,36.30
2023-07-19T06:25:21.938Z,36.60
2023-07-19T06:27:54.337Z,36.60
2023-07-19T06:30:28.887Z,36.60
2023-07-19T06:33:03.258Z,36.90
2023-07-19T06:35:37.810Z,36.90
2023-07-19T06:38:09.978Z,36.50
2023-07-19T06:40:45.832Z,36.40
2023-07-19T06:43:19.199Z,36.20
2023-07-19T06:45:54.447Z,36.00
2023-07-19T06:48:27.531Z,36.10
2023-07-19T06:51:04.197Z,35.90
2023-07-19T06:53:39.921Z,35.80
2023-07-19T06:56:13.620Z,35.70
2023-07-19T06:58:46.525Z,36.00
2023-07-19T07:01:24.817Z,35.80
2023-07-19T07:03:59.946Z,36.20
2023-07-19T07:06:33.050Z,36.40
2023-07-19T07:09:08.232Z,36.60
2023-07-19T07:11:40.705Z,37.00
2023-07-19T07:14:12.832Z,36.80
2023-07-19T07:16:48.205Z,36.30
2023-07-19T07:19:21.119Z,36.40
2023-07-19T07:21:53.780Z,36.60
2023-07-19T07:24:26.468Z,36.70
2023-07-19T07:26:59.955Z,36.70
2023-07-19T07:29:33.142Z,36.50
2023-07-19T07:32:07.931Z,36.90
2023-07-19T07:34:42.418Z,37.20
2023-07-19T07:37:18.552Z,36.80
2023-07-19T07:39:51.778Z,37.00
2023-07-19T07:42:26.267Z,37.00
2023-07-19T07:44:59.054Z,36.60
2023-07-19T07:47:34.493Z,36.90
2023-07-19T07:50:11.048Z,36.50
2023-07-19T07:52:46.290Z,36.20
2023-07-19T07:55:22.550Z,36.10
2023-07-19T07:57:56.386Z,35.70
2023-07-19T08:00:29.000Z,35.80
2023-07-19T08:03:02.874Z,35.70
2023-07-19T08:05:36.991Z,35.50
2023-07-19T08:08:09.991Z,35.40
2023-07-19T08:10:42.566Z,35.20
2023-07-19T08:13:14.695Z,35.20
2023-07-19T08:15:47.612Z,35.10
2023-07-19T08:18:21.973Z,35.10
2023-07-19T08:20:54.520Z,35.00
2023-07-19T08:23:26.866Z,35.20
2023-07-19T08:26:02.714Z,35.10
2023-07-19T08:28:35.054Z,35.20
2023-07-19T08:31:07.810Z,35.10
2023-07-19T08:33:43.597Z,35.00
2023-07-19T08:36:15.881Z,35.30
2023-07-19T08:38:50.333Z,35.50
2023-07-19T08:41:26.346Z,35.50
2023-07-19T08:43:59.741Z,35.70
2023-07-19T08:46:32.783Z,35.90
2023-07-19T08:49:07.254Z,36.10
2023-07-19T08:51:43.715Z,36.00
2023-07-19T08:54:17.291Z,36.10
2023-07-19T08:56:52.414Z,35.80
2023-07-19T08:59:25.111Z,35.70
2023-07-19T09:02:01.794Z,35.90
2023-07-19T09:04:37.634Z,36.10
2023-07-19T09:07:10.165Z,36.20
2023-07-19T09:09:43.233Z,36.10
2023-07-19T09:12:18.284Z,35.90
2023-07-19T09:14:51.089Z,35.80
2023-07-19T09:17:26.005Z,35.70
2023-07-19T09:20:01.423Z,35.70
2023-07-19T09:22:34.000Z,35.80
2023-07-19T09:25:06.825Z,35.80
2023-07-19T09:27:39.191Z,35.70
2023-07-19T09:30:14.788Z,35.50
2023-07-19T09:32:47.485Z,35.50
2023-07-19T09:35:30.816Z,35.50
2023-07-19T09:38:03.209Z,35.30
2023-07-19T09:40:35.701Z,35.10
2023-07-19T09:43:08.541Z,35.00
2023-07-19T09:45:43.333Z,34.70
2023-07-19T09:48:16.694Z,34.60
2023-07-19T09:50:52.123Z,34.50
2023-07-19T09:53:31.177Z,34.30
2023-07-19T09:56:03.640Z,34.20
2023-07-19T09:58:36.599Z,34.20
2023-07-19T10:01:09.078Z,34.10
2023-07-19T10:03:41.018Z,33.90
2023-07-19T10:06:14.994Z,33.50
2023-07-19T10:08:46.890Z,33.60
2023-07-19T10:11:25.833Z,33.70
2023-07-19T10:16:37.819Z,33.40
2023-07-19T10:19:14.655Z,33.50
2023-07-19T10:22:05.393Z,33.70
2023-07-19T10:24:38.550Z,33.80
2023-07-19T10:27:10.985Z,33.70
2023-07-19T10:29:47.297Z,33.60
2023-07-19T10:32:19.572Z,33.90
2023-07-19T10:34:52.322Z,34.00
2023-07-19T10:37:26.398Z,33.90
2023-07-19T10:39:58.615Z,33.60
2023-07-19T10:42:32.165Z,33.40
2023-07-19T10:45:05.062Z,33.50
2023-07-19T10:47:38.384Z,33.40
2023-07-19T10:50:11.126Z,33.20
2023-07-19T10:52:50.454Z,32.80
2023-07-19T10:55:51.018Z,32.80
2023-07-19T10:58:15.859Z,32.50
2023-07-19T11:00:47.995Z,32.30
2023-07-19T11:03:25.774Z,32.30
2023-07-19T11:05:58.658Z,32.30
2023-07-19T11:08:34.672Z,32.20
2023-07-19T11:11:09.358Z,32.10
2023-07-19T11:13:41.794Z,32.10
2023-07-19T11:16:15.269Z,32.10
2023-07-19T11:18:47.835Z,32.20
2023-07-19T11:21:31.757Z,31.90
2023-07-19T11:24:05.900Z,32.00
2023-07-19T11:26:38.093Z,32.10
2023-07-19T11:29:11.285Z,32.20
2023-07-19T11:31:45.151Z,32.00
2023-07-19T11:34:18.807Z,31.70
2023-07-19T11:36:51.584Z,31.90
2023-07-19T11:39:27.321Z,32.00
2023-07-19T11:42:05.496Z,32.00
2023-07-19T11:44:48.864Z,32.00
2023-07-19T11:47:22.818Z,32.00
2023-07-19T11:49:54.758Z,32.10
2023-07-19T11:52:27.064Z,32.20
2023-07-19T11:55:01.775Z,32.30
2023-07-19T11:57:36.987Z,32.30
2023-07-19T12:00:10.503Z,32.30
2023-07-19T12:02:43.880Z,32.40
2023-07-19T12:05:16.888Z,32.30
2023-07-19T12:07:52.781Z,32.20
2023-07-19T12:10:30.247Z,32.10
2023-07-19T12:13:04.813Z,32.10
2023-07-19T12:15:36.847Z,32.00
2023-07-19T12:18:08.814Z,32.00
2023-07-19T12:20:42.510Z,32.10
2023-07-19T12:23:17.023Z,32.10
2023-07-19T12:25:53.383Z,32.10
2023-07-19T12:28:25.826Z,31.80
2023-07-19T12:30:58.808Z,31.50
2023-07-19T12:33:30.883Z,31.50
2023-07-19T12:36:03.652Z,31.40
2023-07-19T12:38:36.501Z,31.30
2023-07-19T12:41:11.049Z,31.30
2023-07-19T12:43:43.552Z,31.10
2023-07-19T12:46:15.666Z,30.90
2023-07-19T12:48:48.008Z,30.90
2023-07-19T12:51:22.108Z,30.80
2023-07-19T12:53:55.026Z,30.80
2023-07-19T12:56:30.753Z,30.90
2023-07-19T12:59:08.285Z,30.90
2023-07-19T13:01:43.285Z,30.90
2023-07-19T13:04:15.927Z,30.80
2023-07-19T13:06:49.176Z,30.80
2023-07-19T13:09:23.013Z,30.50
2023-07-19T13:11:57.111Z,30.60
2023-07-19T13:14:30.130Z,30.70
2023-07-19T13:17:19.797Z,30.80
2023-07-19T13:19:54.227Z,30.90
2023-07-19T13:22:28.301Z,30.50
2023-07-19T13:25:00.319Z,30.40
2023-07-19T13:27:33.984Z,30.40
2023-07-19T13:30:06.580Z,30.40
2023-07-19T13:32:38.856Z,30.30
2023-07-19T13:35:14.922Z,30.00
2023-07-19T13:38:07.708Z,30.20
2023-07-19T13:40:39.695Z,29.90
2023-07-19T13:43:13.720Z,30.10
2023-07-19T13:45:47.231Z,30.30
2023-07-19T13:48:23.600Z,30.30
2023-07-19T13:50:55.800Z,30.10
2023-07-19T13:53:27.946Z,30.10
2023-07-19T13:56:00.409Z,30.20
2023-07-19T13:58:35.066Z,29.80
2023-07-19T14:01:07.191Z,29.70
2023-07-19T14:03:39.414Z,29.60
2023-07-19T14:06:11.531Z,29.70
2023-07-19T14:08:43.641Z,29.60
2023-07-19T14:11:16.016Z,29.60
2023-07-19T14:13:59.589Z,29.50
2023-07-19T14:16:35.032Z,29.40
2023-07-19T14:19:07.514Z,29.70
2023-07-19T14:21:39.470Z,29.80
2023-07-19T14:24:12.819Z,29.90
2023-07-19T14:26:47.583Z,29.90
2023-07-19T14:29:24.047Z,29.80
2023-07-19T14:31:57.050Z,29.70
2023-07-19T14:34:30.663Z,29.60
2023-07-19T14:37:02.562Z,29.60
2023-07-19T14:39:34.290Z,29.60
2023-07-19T14:42:06.823Z,29.70
2023-07-19T14:44:40.898Z,29.70
2023-07-19T14:47:15.613Z,29.80
2023-07-19T14:49:47.708Z,29.70
2023-07-19T14:52:19.970Z,29.60
2023-07-19T14:54:51.833Z,29.70
2023-07-19T14:57:24.384Z,29.60
2023-07-19T15:00:11.571Z,29.80
2023-07-19T15:02:59.356Z,29.60
2023-07-19T15:05:35.740Z,29.50
2023-07-19T15:08:17.415Z,29.30
2023-07-19T15:10:50.417Z,29.10
2023-07-19T15:13:24.858Z,29.00
2023-07-19T15:15:59.354Z,29.00
2023-07-19T15:18:32.274Z,29.00
2023-07-19T15:21:14.780Z,29.10
2023-07-19T15:23:49.968Z,29.20
2023-07-19T15:26:34.848Z,29.30
2023-07-19T15:29:09.433Z,29.10
2023-07-19T15:31:52.726Z,29.00
2023-07-19T15:34:26.728Z,28.90
2023-07-19T15:36:58.671Z,28.90
2023-07-19T15:39:34.288Z,28.60
2023-07-19T15:42:07.842Z,28.80
2023-07-19T15:44:41.670Z,28.80
2023-07-19T15:47:17.411Z,28.90
2023-07-19T15:49:49.670Z,29.00
2023-07-19T15:52:22.154Z,28.60
2023-07-19T15:54:54.992Z,28.70
2023-07-19T15:57:27.464Z,28.70
2023-07-19T15:59:59.215Z,28.80
2023-07-19T16:02:33.291Z,28.80
2023-07-19T16:05:11.320Z,28.90
2023-07-19T16:07:43.897Z,29.10
2023-07-19T16:10:15.741Z,28.90
2023-07-19T16:12:49.864Z,29.00
2023-07-19T16:15:22.159Z,28.90
2023-07-19T16:17:56.243Z,29.00
2023-07-19T16:20:29.017Z,28.90
2023-07-19T16:23:01.309Z,28.90
2023-07-19T16:25:37.719Z,29.00
2023-07-19T16:28:10.489Z,29.00
2023-07-19T16:30:43.001Z,29.10
2023-07-19T16:33:17.499Z,29.30
2023-07-19T16:35:49.638Z,29.30
2023-07-19T16:38:21.781Z,29.40
2023-07-19T16:40:54.973Z,29.30
2023-07-19T16:43:32.919Z,29.30
2023-07-19T16:46:05.466Z,29.20
2023-07-19T16:48:39.272Z,29.30
2023-07-19T16:51:11.370Z,29.30
2023-07-19T16:53:43.257Z,29.30
2023-07-19T16:56:15.371Z,29.20
2023-07-19T16:58:48.994Z,29.20
2023-07-19T17:01:22.064Z,29.20
2023-07-19T17:03:57.633Z,29.30
2023-07-19T17:06:29.548Z,29.00
2023-07-19T17:09:03.594Z,28.80
2023-07-19T17:11:37.270Z,28.90
2023-07-19T17:14:10.112Z,29.10
2023-07-19T17:16:42.111Z,29.20
2023-07-19T17:19:16.517Z,29.30
2023-07-19T17:21:52.970Z,29.10
2023-07-19T17:24:26.039Z,29.00
2023-07-19T17:26:58.643Z,29.10
2023-07-19T17:29:32.726Z,29.10
2023-07-19T17:32:05.057Z,28.80
2023-07-19T17:34:40.758Z,28.70
2023-07-19T17:37:14.321Z,28.90
2023-07-19T17:39:46.933Z,28.90
2023-07-19T17:42:19.154Z,28.90
2023-07-19T17:44:52.693Z,29.00
2023-07-19T17:47:24.797Z,28.80
2023-07-19T17:50:00.841Z,28.90
2023-07-19T17:52:33.738Z,28.90
2023-07-19T17:55:05.599Z,28.90
2023-07-19T17:57:38.307Z,29.00
2023-07-19T18:00:11.069Z,28.90
2023-07-19T18:02:43.763Z,28.90
2023-07-19T18:05:19.450Z,29.10
2023-07-19T18:07:51.853Z,29.10
2023-07-19T18:10:23.894Z,29.30
2023-07-19T18:12:57.255Z,29.20
2023-07-19T18:15:30.049Z,29.30
2023-07-19T18:18:02.436Z,29.10
2023-07-19T18:20:37.022Z,29.10
2023-07-19T18:23:09.660Z,29.00
2023-07-19T18:25:42.077Z,29.00
2023-07-19T18:28:16.780Z,29.00
2023-07-19T18:30:49.208Z,28.90
2023-07-19T18:33:21.791Z,28.90
2023-07-19T18:35:55.822Z,28.90
2023-07-19T18:38:27.945Z,28.90
2023-07-19T18:40:59.845Z,28.80
2023-07-19T18:43:33.763Z,28.90
2023-07-19T18:46:06.299Z,28.80
2023-07-19T18:48:38.574Z,28.80
2023-07-19T18:51:13.773Z,28.70
2023-07-19T18:53:49.940Z,28.60
2023-07-19T18:56:25.058Z,28.70
2023-07-19T18:58:57.162Z,28.80
2023-07-19T19:01:29.735Z,28.70
2023-07-19T19:04:02.356Z,28.80
2023-07-19T19:06:36.858Z,28.90
2023-07-19T19:09:09.572Z,28.90
2023-07-19T19:11:41.802Z,29.00
2023-07-19T19:14:15.840Z,29.00
2023-07-19T19:16:48.047Z,28.90
2023-07-19T19:19:20.592Z,28.90
2023-07-19T19:21:55.355Z,28.90
2023-07-19T19:24:27.401Z,28.70
2023-07-19T19:27:00.354Z,28.70
2023-07-19T19:29:32.461Z,28.70
2023-07-19T19:32:04.803Z,28.60
2023-07-19T19:34:38.688Z,28.60
2023-07-19T19:37:12.693Z,28.80
2023-07-19T19:39:44.487Z,29.00
2023-07-19T19:42:16.863Z,29.00
2023-07-19T19:44:49.018Z,28.90
2023-07-19T19:47:21.362Z,28.80
2023-07-19T19:49:53.829Z,28.90
2023-07-19T19:52:28.238Z,28.80
2023-07-19T19:55:00.962Z,28.80
2023-07-19T19:57:35.195Z,28.90
2023-07-19T20:00:07.774Z,28.80
2023-07-19T20:02:40.917Z,29.00
2023-07-19T20:05:56.015Z,28.80
2023-07-19T20:08:07.854Z,28.50
2023-07-19T20:10:40.092Z,28.60
2023-07-19T20:13:13.833Z,28.70
2023-07-19T20:15:52.602Z,28.70
2023-07-19T20:18:47.073Z,28.70
2023-07-19T20:21:17.203Z,28.50
2023-07-19T20:23:51.797Z,28.70
2023-07-19T20:26:25.442Z,28.70
2023-07-19T20:36:48.482Z,28.70
2023-07-19T20:41:58.446Z,28.50
2023-07-19T20:44:31.344Z,28.50
2023-07-19T20:47:04.156Z,28.50
2023-07-19T20:49:40.449Z,28.40
2023-07-19T20:52:14.944Z,28.40
2023-07-19T20:54:49.771Z,28.50
2023-07-19T20:57:22.395Z,28.30
2023-07-19T20:59:54.542Z,28.30
2023-07-19T21:02:27.473Z,28.20
2023-07-19T21:04:59.566Z,28.40
2023-07-19T21:07:31.695Z,28.10
2023-07-19T21:10:05.747Z,28.20
2023-07-19T21:12:38.133Z,28.40
2023-07-19T21:15:10.789Z,28.40
2023-07-19T21:17:43.993Z,28.40
2023-07-19T21:20:16.772Z,28.40
2023-07-19T21:22:49.925Z,28.20
2023-07-19T21:25:24.270Z,28.30
2023-07-19T21:27:57.337Z,28.20
2023-07-19T21:30:29.527Z,28.10
2023-07-19T21:33:01.643Z,28.10
2023-07-19T21:35:33.733Z,28.00
2023-07-19T21:38:06.248Z,28.00
2023-07-19T21:40:40.196Z,27.90
2023-07-19T21:43:12.941Z,28.00
2023-07-19T21:45:44.933Z,28.00
2023-07-19T21:48:16.868Z,28.10
2023-07-19T21:50:49.262Z,28.10
2023-07-19T21:53:24.825Z,28.10
2023-07-19T21:55:58.763Z,28.00
2023-07-19T21:58:30.706Z,28.10
2023-07-19T22:01:04.302Z,28.20
2023-07-19T22:03:36.685Z,28.20
2023-07-19T22:06:09.042Z,28.00
2023-07-19T22:08:43.373Z,27.90
2023-07-19T22:11:18.276Z,28.10
2023-07-19T22:13:51.985Z,28.20
2023-07-19T22:16:24.634Z,28.00
2023-07-19T22:18:57.318Z,28.20
2023-07-19T22:21:29.388Z,28.20
2023-07-19T22:24:05.401Z,28.00
2023-07-19T22:26:39.989Z,28.00
2023-07-19T22:29:12.218Z,28.10
2023-07-19T22:31:44.594Z,28.30
2023-07-19T22:34:16.728Z,28.10
2023-07-19T22:36:50.315Z,28.20
2023-07-19T22:39:22.516Z,28.10
2023-07-19T22:41:56.474Z,28.00
2023-07-19T22:44:28.789Z,28.10
2023-07-19T22:47:01.118Z,28.00
2023-07-19T22:49:34.920Z,28.20
2023-07-19T22:52:06.813Z,28.50
2023-07-19T22:54:38.946Z,28.50
2023-07-19T22:57:12.967Z,28.40
2023-07-19T22:59:45.812Z,28.40
2023-07-19T23:02:18.107Z,28.50
2023-07-19T23:04:50.843Z,28.40
2023-07-19T23:07:23.147Z,28.50
2023-07-19T23:09:55.256Z,28.60
2023-07-19T23:12:29.648Z,28.90
2023-07-19T23:15:01.716Z,28.80
2023-07-19T23:17:34.148Z,28.90
2023-07-19T23:20:08.361Z,28.90
2023-07-19T23:22:40.968Z,28.70
2023-07-19T23:25:15.651Z,28.70
2023-07-19T23:27:51.520Z,28.80
2023-07-19T23:30:23.881Z,28.70
2023-07-19T23:32:56.526Z,28.70
2023-07-19T23:35:30.762Z,28.60
2023-07-19T23:38:02.842Z,28.60
2023-07-19T23:40:34.937Z,28.70
2023-07-19T23:43:09.202Z,28.80
2023-07-19T23:45:41.330Z,28.90
2023-07-19T23:48:13.685Z,29.10
2023-07-19T23:50:46.172Z,29.30
2023-07-19T23:53:18.735Z,29.20
2023-07-19T23:55:51.764Z,29.20
2023-07-19T23:58:26.226Z,29.40
